sensor_id;sensor_type;location;lat;lon;timestamp;temperature;humidity
51733;DHT22;39139;53.144;6.244;2022-10-22T00:01:55;12.10;99.90
51733;DHT22;39139;53.144;6.244;2022-10-22T00:04:20;12.00;99.90
51733;DHT22;39139;53.144;6.244;2022-10-22T00:06:46;12.10;99.90
51733;DHT22;39139;53.144;6.244;2022-10-22T00:09:12;11.80;99.90
51733;DHT22;39139;53.144;6.244;2022-10-22T00:11:38;11.90;99.90
51733;DHT22;39139;53.144;6.244;2022-10-22T00:14:04;11.70;99.90
51733;DHT22;39139;53.144;6.244;2022-10-22T00:16:30;11.60;99.90
51733;DHT22;39139;53.144;6.244;2022-10-22T00:18:56;11.80;99.90
51733;DHT22;39139;53.144;6.244;2022-10-22T00:21:21;11.60;99.90
51733;DHT22;39139;53.144;6.244;2022-10-22T00:23:47;11.70;99.90
51733;DHT22;39139;53.144;6.244;2022-10-22T00:26:13;11.70;99.90
51733;DHT22;39139;53.144;6.244;2022-10-22T00:28:38;11.50;99.90
51733;DHT22;39139;53.144;6.244;2022-10-22T00:31:05;11.80;99.90
51733;DHT22;39139;53.144;6.244;2022-10-22T00:33:31;11.70;99.90
51733;DHT22;39139;53.144;6.244;2022-10-22T00:35:57;11.80;99.90
51733;DHT22;39139;53.144;6.244;2022-10-22T00:38:23;11.70;99.90
51733;DHT22;39139;53.144;6.244;2022-10-22T00:40:49;11.80;99.90
51733;DHT22;39139;53.144;6.244;2022-10-22T00:43:18;11.80;99.90
51733;DHT22;39139;53.144;6.244;2022-10-22T00:45:44;11.80;99.90
51733;DHT22;39139;53.144;6.244;2022-10-22T00:48:27;11.70;99.90
51733;DHT22;39139;53.144;6.244;2022-10-22T00:50:58;11.80;99.90
51733;DHT22;39139;53.144;6.244;2022-10-22T00:53:28;11.80;99.90
51733;DHT22;39139;53.144;6.244;2022-10-22T00:55:56;11.70;99.90
51733;DHT22;39139;53.144;6.244;2022-10-22T00:58:26;11.70;99.90
51733;DHT22;39139;53.144;6.244;2022-10-22T01:00:53;12.30;99.90
51733;DHT22;39139;53.144;6.244;2022-10-22T01:03:19;11.80;99.90
51733;DHT22;39139;53.144;6.244;2022-10-22T01:06:04;11.90;99.90
51733;DHT22;39139;53.144;6.244;2022-10-22T01:08:52;12.10;99.90
51733;DHT22;39139;53.144;6.244;2022-10-22T01:11:40;11.90;99.90
51733;DHT22;39139;53.144;6.244;2022-10-22T01:14:23;11.90;99.90
51733;DHT22;39139;53.144;6.244;2022-10-22T01:16:59;12.00;99.90
51733;DHT22;39139;53.144;6.244;2022-10-22T01:27:36;12.10;99.90
51733;DHT22;39139;53.144;6.244;2022-10-22T01:30:06;12.30;99.90
51733;DHT22;39139;53.144;6.244;2022-10-22T01:32:37;12.40;99.90
51733;DHT22;39139;53.144;6.244;2022-10-22T01:35:06;12.20;99.90
51733;DHT22;39139;53.144;6.244;2022-10-22T01:37:39;12.30;99.90
51733;DHT22;39139;53.144;6.244;2022-10-22T01:40:06;12.40;99.90
51733;DHT22;39139;53.144;6.244;2022-10-22T01:42:32;12.30;99.90
51733;DHT22;39139;53.144;6.244;2022-10-22T01:44:58;12.50;99.90
51733;DHT22;39139;53.144;6.244;2022-10-22T01:47:41;12.20;99.90
51733;DHT22;39139;53.144;6.244;2022-10-22T01:50:51;12.50;99.90
51733;DHT22;39139;53.144;6.244;2022-10-22T01:53:27;12.20;99.90
51733;DHT22;39139;53.144;6.244;2022-10-22T01:56:14;12.20;99.90
51733;DHT22;39139;53.144;6.244;2022-10-22T02:03:52;12.40;99.90
51733;DHT22;39139;53.144;6.244;2022-10-22T02:06:21;12.20;99.90
51733;DHT22;39139;53.144;6.244;2022-10-22T02:08:48;12.50;99.90
51733;DHT22;39139;53.144;6.244;2022-10-22T02:11:15;12.50;99.90
51733;DHT22;39139;53.144;6.244;2022-10-22T02:14:07;12.60;99.90
51733;DHT22;39139;53.144;6.244;2022-10-22T02:16:40;12.50;99.90
51733;DHT22;39139;53.144;6.244;2022-10-22T02:19:27;12.50;99.90
51733;DHT22;39139;53.144;6.244;2022-10-22T02:21:57;12.70;99.90
51733;DHT22;39139;53.144;6.244;2022-10-22T02:24:23;12.70;99.90
51733;DHT22;39139;53.144;6.244;2022-10-22T02:29:39;12.60;99.90
51733;DHT22;39139;53.144;6.244;2022-10-22T02:32:09;12.70;99.90
51733;DHT22;39139;53.144;6.244;2022-10-22T02:34:35;12.70;99.90
51733;DHT22;39139;53.144;6.244;2022-10-22T02:37:02;12.60;99.90
51733;DHT22;39139;53.144;6.244;2022-10-22T02:39:29;12.80;99.90
51733;DHT22;39139;53.144;6.244;2022-10-22T02:41:55;12.70;99.90
51733;DHT22;39139;53.144;6.244;2022-10-22T02:44:22;12.80;99.90
51733;DHT22;39139;53.144;6.244;2022-10-22T02:46:49;12.50;99.90
51733;DHT22;39139;53.144;6.244;2022-10-22T02:49:14;12.70;99.90
51733;DHT22;39139;53.144;6.244;2022-10-22T02:51:40;12.70;99.90
51733;DHT22;39139;53.144;6.244;2022-10-22T02:54:06;12.70;99.90
51733;DHT22;39139;53.144;6.244;2022-10-22T02:56:32;12.60;99.90
51733;DHT22;39139;53.144;6.244;2022-10-22T02:58:58;12.60;99.90
51733;DHT22;39139;53.144;6.244;2022-10-22T03:01:23;12.70;99.90
51733;DHT22;39139;53.144;6.244;2022-10-22T03:03:49;12.80;99.90
51733;DHT22;39139;53.144;6.244;2022-10-22T03:06:16;12.70;99.90
51733;DHT22;39139;53.144;6.244;2022-10-22T03:08:41;12.80;99.90
51733;DHT22;39139;53.144;6.244;2022-10-22T03:11:07;12.80;99.90
51733;DHT22;39139;53.144;6.244;2022-10-22T03:13:33;12.80;99.90
51733;DHT22;39139;53.144;6.244;2022-10-22T03:15:58;12.60;99.90
51733;DHT22;39139;53.144;6.244;2022-10-22T03:18:24;13.40;99.90
51733;DHT22;39139;53.144;6.244;2022-10-22T03:20:50;12.60;99.90
51733;DHT22;39139;53.144;6.244;2022-10-22T03:23:17;12.50;99.90
51733;DHT22;39139;53.144;6.244;2022-10-22T03:25:45;12.80;99.90
51733;DHT22;39139;53.144;6.244;2022-10-22T03:28:14;12.80;99.90
51733;DHT22;39139;53.144;6.244;2022-10-22T03:30:40;13.00;99.90
51733;DHT22;39139;53.144;6.244;2022-10-22T03:33:06;12.60;99.90
51733;DHT22;39139;53.144;6.244;2022-10-22T03:35:34;12.50;99.90
51733;DHT22;39139;53.144;6.244;2022-10-22T03:38:02;12.70;99.90
51733;DHT22;39139;53.144;6.244;2022-10-22T03:40:28;12.80;99.90
51733;DHT22;39139;53.144;6.244;2022-10-22T03:42:53;12.40;99.90
51733;DHT22;39139;53.144;6.244;2022-10-22T03:45:19;12.60;99.90
51733;DHT22;39139;53.144;6.244;2022-10-22T03:47:45;12.50;99.90
51733;DHT22;39139;53.144;6.244;2022-10-22T03:50:10;12.60;99.90
51733;DHT22;39139;53.144;6.244;2022-10-22T03:52:37;12.50;99.90
51733;DHT22;39139;53.144;6.244;2022-10-22T03:55:05;12.60;99.90
51733;DHT22;39139;53.144;6.244;2022-10-22T03:57:31;12.30;99.90
51733;DHT22;39139;53.144;6.244;2022-10-22T03:59:56;12.60;99.90
51733;DHT22;39139;53.144;6.244;2022-10-22T04:02:22;12.50;99.90
51733;DHT22;39139;53.144;6.244;2022-10-22T04:04:47;12.50;99.90
51733;DHT22;39139;53.144;6.244;2022-10-22T04:07:13;12.40;99.90
51733;DHT22;39139;53.144;6.244;2022-10-22T04:09:39;12.50;99.90
51733;DHT22;39139;53.144;6.244;2022-10-22T04:12:05;12.30;99.90
51733;DHT22;39139;53.144;6.244;2022-10-22T04:14:32;12.50;99.90
51733;DHT22;39139;53.144;6.244;2022-10-22T04:16:58;12.60;99.90
51733;DHT22;39139;53.144;6.244;2022-10-22T04:19:23;12.30;99.90
51733;DHT22;39139;53.144;6.244;2022-10-22T04:21:49;12.40;99.90
51733;DHT22;39139;53.144;6.244;2022-10-22T04:24:15;12.50;99.90
51733;DHT22;39139;53.144;6.244;2022-10-22T04:26:40;12.50;99.90
51733;DHT22;39139;53.144;6.244;2022-10-22T04:29:06;12.50;99.90
51733;DHT22;39139;53.144;6.244;2022-10-22T04:31:32;12.50;99.90
51733;DHT22;39139;53.144;6.244;2022-10-22T04:33:59;12.50;99.90
51733;DHT22;39139;53.144;6.244;2022-10-22T04:36:26;12.60;99.90
51733;DHT22;39139;53.144;6.244;2022-10-22T04:38:58;12.30;99.90
51733;DHT22;39139;53.144;6.244;2022-10-22T04:41:30;12.30;99.90
51733;DHT22;39139;53.144;6.244;2022-10-22T04:43:56;12.30;99.90
51733;DHT22;39139;53.144;6.244;2022-10-22T04:46:23;12.30;99.90
51733;DHT22;39139;53.144;6.244;2022-10-22T04:48:50;12.40;99.90
51733;DHT22;39139;53.144;6.244;2022-10-22T04:51:18;12.50;99.90
51733;DHT22;39139;53.144;6.244;2022-10-22T04:53:44;12.30;99.90
51733;DHT22;39139;53.144;6.244;2022-10-22T04:56:23;12.30;99.90
51733;DHT22;39139;53.144;6.244;2022-10-22T04:58:55;12.30;99.90
51733;DHT22;39139;53.144;6.244;2022-10-22T05:01:26;12.40;99.90
51733;DHT22;39139;53.144;6.244;2022-10-22T05:03:54;12.50;99.90
51733;DHT22;39139;53.144;6.244;2022-10-22T05:06:20;12.30;99.90
51733;DHT22;39139;53.144;6.244;2022-10-22T05:08:47;12.50;99.90
51733;DHT22;39139;53.144;6.244;2022-10-22T05:11:18;12.30;99.90
51733;DHT22;39139;53.144;6.244;2022-10-22T05:13:44;12.20;99.90
51733;DHT22;39139;53.144;6.244;2022-10-22T05:16:11;12.30;99.90
51733;DHT22;39139;53.144;6.244;2022-10-22T05:18:38;12.40;99.90
51733;DHT22;39139;53.144;6.244;2022-10-22T05:21:08;12.50;99.90
51733;DHT22;39139;53.144;6.244;2022-10-22T05:23:34;12.50;99.90
51733;DHT22;39139;53.144;6.244;2022-10-22T05:26:04;12.50;99.90
51733;DHT22;39139;53.144;6.244;2022-10-22T05:28:30;12.50;99.90
51733;DHT22;39139;53.144;6.244;2022-10-22T05:30:57;12.50;99.90
51733;DHT22;39139;53.144;6.244;2022-10-22T05:33:23;12.20;99.90
51733;DHT22;39139;53.144;6.244;2022-10-22T05:35:49;12.50;99.90
51733;DHT22;39139;53.144;6.244;2022-10-22T05:38:16;12.30;99.90
51733;DHT22;39139;53.144;6.244;2022-10-22T05:40:42;12.30;99.90
51733;DHT22;39139;53.144;6.244;2022-10-22T05:43:08;12.40;99.90
51733;DHT22;39139;53.144;6.244;2022-10-22T05:45:40;12.40;99.90
51733;DHT22;39139;53.144;6.244;2022-10-22T05:48:07;12.30;99.90
51733;DHT22;39139;53.144;6.244;2022-10-22T05:50:37;12.30;99.90
51733;DHT22;39139;53.144;6.244;2022-10-22T05:53:04;12.60;99.90
51733;DHT22;39139;53.144;6.244;2022-10-22T05:55:33;12.50;99.90
51733;DHT22;39139;53.144;6.244;2022-10-22T05:58:02;12.40;99.90
51733;DHT22;39139;53.144;6.244;2022-10-22T06:00:27;12.50;99.90
51733;DHT22;39139;53.144;6.244;2022-10-22T06:02:53;12.40;99.90
51733;DHT22;39139;53.144;6.244;2022-10-22T06:05:19;12.30;99.90
51733;DHT22;39139;53.144;6.244;2022-10-22T06:07:44;12.30;99.90
51733;DHT22;39139;53.144;6.244;2022-10-22T06:10:16;12.40;99.90
51733;DHT22;39139;53.144;6.244;2022-10-22T06:12:42;12.30;99.90
51733;DHT22;39139;53.144;6.244;2022-10-22T06:15:10;12.30;99.90
51733;DHT22;39139;53.144;6.244;2022-10-22T06:17:36;12.40;99.90
51733;DHT22;39139;53.144;6.244;2022-10-22T06:20:02;12.50;99.90
51733;DHT22;39139;53.144;6.244;2022-10-22T06:22:27;12.40;99.90
51733;DHT22;39139;53.144;6.244;2022-10-22T06:24:53;12.40;99.90
51733;DHT22;39139;53.144;6.244;2022-10-22T06:27:19;12.50;99.90
51733;DHT22;39139;53.144;6.244;2022-10-22T06:29:44;12.80;99.90
51733;DHT22;39139;53.144;6.244;2022-10-22T06:32:10;12.60;99.90
51733;DHT22;39139;53.144;6.244;2022-10-22T06:34:35;12.60;99.90
51733;DHT22;39139;53.144;6.244;2022-10-22T06:37:01;12.60;99.90
51733;DHT22;39139;53.144;6.244;2022-10-22T06:39:27;12.60;99.90
51733;DHT22;39139;53.144;6.244;2022-10-22T06:41:52;12.60;99.90
51733;DHT22;39139;53.144;6.244;2022-10-22T06:44:18;12.50;99.90
51733;DHT22;39139;53.144;6.244;2022-10-22T06:46:44;12.50;99.90
51733;DHT22;39139;53.144;6.244;2022-10-22T06:49:14;12.70;99.90
51733;DHT22;39139;53.144;6.244;2022-10-22T06:51:39;12.70;99.90
51733;DHT22;39139;53.144;6.244;2022-10-22T06:54:05;12.60;99.90
51733;DHT22;39139;53.144;6.244;2022-10-22T06:56:31;12.80;99.90
51733;DHT22;39139;53.144;6.244;2022-10-22T06:58:57;12.70;99.90
51733;DHT22;39139;53.144;6.244;2022-10-22T07:01:26;12.80;99.90
51733;DHT22;39139;53.144;6.244;2022-10-22T07:03:52;12.70;99.90
51733;DHT22;39139;53.144;6.244;2022-10-22T07:06:18;12.90;99.90
51733;DHT22;39139;53.144;6.244;2022-10-22T07:08:44;12.90;99.90
51733;DHT22;39139;53.144;6.244;2022-10-22T07:11:12;12.70;99.90
51733;DHT22;39139;53.144;6.244;2022-10-22T07:13:38;12.80;99.90
51733;DHT22;39139;53.144;6.244;2022-10-22T07:16:05;12.90;99.90
51733;DHT22;39139;53.144;6.244;2022-10-22T07:18:32;13.00;99.90
51733;DHT22;39139;53.144;6.244;2022-10-22T07:20:58;12.90;99.90
51733;DHT22;39139;53.144;6.244;2022-10-22T07:23:24;13.10;99.90
51733;DHT22;39139;53.144;6.244;2022-10-22T07:25:50;13.10;99.90
51733;DHT22;39139;53.144;6.244;2022-10-22T07:28:15;13.00;99.90
51733;DHT22;39139;53.144;6.244;2022-10-22T07:30:41;13.20;99.90
51733;DHT22;39139;53.144;6.244;2022-10-22T07:33:07;13.20;99.90
51733;DHT22;39139;53.144;6.244;2022-10-22T07:35:33;13.10;99.90
51733;DHT22;39139;53.144;6.244;2022-10-22T07:37:59;13.20;99.90
51733;DHT22;39139;53.144;6.244;2022-10-22T07:40:25;13.30;99.90
51733;DHT22;39139;53.144;6.244;2022-10-22T07:42:50;13.30;99.90
51733;DHT22;39139;53.144;6.244;2022-10-22T07:45:16;13.10;99.90
51733;DHT22;39139;53.144;6.244;2022-10-22T07:47:42;13.40;99.90
51733;DHT22;39139;53.144;6.244;2022-10-22T07:50:08;13.30;99.90
51733;DHT22;39139;53.144;6.244;2022-10-22T07:52:34;13.20;99.90
51733;DHT22;39139;53.144;6.244;2022-10-22T07:54:59;13.20;99.90
51733;DHT22;39139;53.144;6.244;2022-10-22T07:57:25;13.30;99.90
51733;DHT22;39139;53.144;6.244;2022-10-22T07:59:51;13.40;99.90
51733;DHT22;39139;53.144;6.244;2022-10-22T08:02:16;13.30;99.90
51733;DHT22;39139;53.144;6.244;2022-10-22T08:04:42;13.40;99.90
51733;DHT22;39139;53.144;6.244;2022-10-22T08:07:07;13.50;99.90
51733;DHT22;39139;53.144;6.244;2022-10-22T08:09:33;13.50;99.90
51733;DHT22;39139;53.144;6.244;2022-10-22T08:12:00;13.60;99.90
51733;DHT22;39139;53.144;6.244;2022-10-22T08:14:25;13.90;99.90
51733;DHT22;39139;53.144;6.244;2022-10-22T08:16:52;14.00;99.90
51733;DHT22;39139;53.144;6.244;2022-10-22T08:19:17;14.20;99.90
51733;DHT22;39139;53.144;6.244;2022-10-22T08:21:46;14.50;99.90
51733;DHT22;39139;53.144;6.244;2022-10-22T08:24:12;14.80;99.90
51733;DHT22;39139;53.144;6.244;2022-10-22T08:26:39;15.10;99.90
51733;DHT22;39139;53.144;6.244;2022-10-22T08:29:05;15.70;99.90
51733;DHT22;39139;53.144;6.244;2022-10-22T08:31:31;16.20;99.90
51733;DHT22;39139;53.144;6.244;2022-10-22T08:33:57;16.40;99.90
51733;DHT22;39139;53.144;6.244;2022-10-22T08:36:23;16.60;99.90
51733;DHT22;39139;53.144;6.244;2022-10-22T08:38:48;16.50;99.90
51733;DHT22;39139;53.144;6.244;2022-10-22T08:41:21;16.50;99.90
51733;DHT22;39139;53.144;6.244;2022-10-22T08:49:59;16.70;99.90
51733;DHT22;39139;53.144;6.244;2022-10-22T08:52:25;16.90;99.90
51733;DHT22;39139;53.144;6.244;2022-10-22T08:54:53;17.10;99.90
51733;DHT22;39139;53.144;6.244;2022-10-22T08:57:41;17.60;99.90
51733;DHT22;39139;53.144;6.244;2022-10-22T09:00:16;17.80;99.90
51733;DHT22;39139;53.144;6.244;2022-10-22T09:03:06;17.80;99.90
51733;DHT22;39139;53.144;6.244;2022-10-22T09:05:39;18.30;99.90
51733;DHT22;39139;53.144;6.244;2022-10-22T09:08:14;18.50;99.90
51733;DHT22;39139;53.144;6.244;2022-10-22T09:10:46;18.60;99.90
51733;DHT22;39139;53.144;6.244;2022-10-22T09:13:16;18.40;99.90
51733;DHT22;39139;53.144;6.244;2022-10-22T09:15:44;18.10;99.90
51733;DHT22;39139;53.144;6.244;2022-10-22T09:21:18;17.60;99.90
51733;DHT22;39139;53.144;6.244;2022-10-22T09:26:15;17.10;99.90
51733;DHT22;39139;53.144;6.244;2022-10-22T09:28:42;16.90;99.90
51733;DHT22;39139;53.144;6.244;2022-10-22T09:31:12;16.80;99.90
51733;DHT22;39139;53.144;6.244;2022-10-22T09:33:38;16.60;99.90
51733;DHT22;39139;53.144;6.244;2022-10-22T09:36:05;16.50;99.90
51733;DHT22;39139;53.144;6.244;2022-10-22T09:38:41;16.40;99.90
51733;DHT22;39139;53.144;6.244;2022-10-22T09:41:09;16.30;99.90
51733;DHT22;39139;53.144;6.244;2022-10-22T09:43:35;16.20;99.90
51733;DHT22;39139;53.144;6.244;2022-10-22T09:46:03;16.20;99.90
51733;DHT22;39139;53.144;6.244;2022-10-22T09:51:21;16.10;99.90
51733;DHT22;39139;53.144;6.244;2022-10-22T09:53:58;16.00;99.90
51733;DHT22;39139;53.144;6.244;2022-10-22T09:56:34;16.00;99.90
51733;DHT22;39139;53.144;6.244;2022-10-22T09:59:01;16.00;99.90
51733;DHT22;39139;53.144;6.244;2022-10-22T10:01:30;15.90;99.90
51733;DHT22;39139;53.144;6.244;2022-10-22T10:04:08;15.90;99.90
51733;DHT22;39139;53.144;6.244;2022-10-22T10:06:35;15.80;99.90
51733;DHT22;39139;53.144;6.244;2022-10-22T10:09:15;16.00;99.90
51733;DHT22;39139;53.144;6.244;2022-10-22T10:11:45;16.10;99.90
51733;DHT22;39139;53.144;6.244;2022-10-22T10:14:53;16.10;99.90
51733;DHT22;39139;53.144;6.244;2022-10-22T10:17:30;16.00;99.90
51733;DHT22;39139;53.144;6.244;2022-10-22T10:22:49;16.10;99.90
51733;DHT22;39139;53.144;6.244;2022-10-22T10:31:19;16.00;99.90
51733;DHT22;39139;53.144;6.244;2022-10-22T10:34:02;16.00;99.90
51733;DHT22;39139;53.144;6.244;2022-10-22T10:39:03;15.90;99.90
51733;DHT22;39139;53.144;6.244;2022-10-22T10:41:55;15.90;99.90
51733;DHT22;39139;53.144;6.244;2022-10-22T10:44:47;15.90;99.90
51733;DHT22;39139;53.144;6.244;2022-10-22T10:49:45;15.80;99.90
51733;DHT22;39139;53.144;6.244;2022-10-22T10:52:30;15.80;99.90
51733;DHT22;39139;53.144;6.244;2022-10-22T10:55:31;15.70;99.90
51733;DHT22;39139;53.144;6.244;2022-10-22T10:58:17;15.60;99.90
51733;DHT22;39139;53.144;6.244;2022-10-22T11:00:54;15.60;99.90
51733;DHT22;39139;53.144;6.244;2022-10-22T11:03:53;15.60;99.90
51733;DHT22;39139;53.144;6.244;2022-10-22T11:06:24;15.50;99.90
51733;DHT22;39139;53.144;6.244;2022-10-22T11:09:00;15.90;99.90
51733;DHT22;39139;53.144;6.244;2022-10-22T11:12:00;16.00;99.90
51733;DHT22;39139;53.144;6.244;2022-10-22T11:14:29;16.20;99.90
51733;DHT22;39139;53.144;6.244;2022-10-22T11:19:37;16.30;99.90
51733;DHT22;39139;53.144;6.244;2022-10-22T11:22:31;16.30;99.90
51733;DHT22;39139;53.144;6.244;2022-10-22T11:25:14;16.30;99.90
51733;DHT22;39139;53.144;6.244;2022-10-22T11:27:46;16.10;99.90
51733;DHT22;39139;53.144;6.244;2022-10-22T11:30:19;16.00;99.90
51733;DHT22;39139;53.144;6.244;2022-10-22T11:32:50;15.90;99.90
51733;DHT22;39139;53.144;6.244;2022-10-22T11:35:21;15.70;99.90
51733;DHT22;39139;53.144;6.244;2022-10-22T11:37:48;15.80;99.90
51733;DHT22;39139;53.144;6.244;2022-10-22T11:42:58;15.60;99.90
51733;DHT22;39139;53.144;6.244;2022-10-22T11:50:47;15.90;99.90
51733;DHT22;39139;53.144;6.244;2022-10-22T11:55:43;15.90;99.90
51733;DHT22;39139;53.144;6.244;2022-10-22T12:11:37;16.10;99.90
51733;DHT22;39139;53.144;6.244;2022-10-22T12:14:20;16.20;99.90
51733;DHT22;39139;53.144;6.244;2022-10-22T12:17:02;16.20;99.90
51733;DHT22;39139;53.144;6.244;2022-10-22T12:19:41;16.20;99.90
51733;DHT22;39139;53.144;6.244;2022-10-22T12:22:29;16.10;99.90
51733;DHT22;39139;53.144;6.244;2022-10-22T12:24:59;16.10;99.90
51733;DHT22;39139;53.144;6.244;2022-10-22T12:27:33;16.20;99.90
51733;DHT22;39139;53.144;6.244;2022-10-22T12:30:01;16.00;99.90
51733;DHT22;39139;53.144;6.244;2022-10-22T12:32:37;15.90;99.90
51733;DHT22;39139;53.144;6.244;2022-10-22T12:35:16;15.90;99.90
51733;DHT22;39139;53.144;6.244;2022-10-22T12:37:42;15.90;99.90
51733;DHT22;39139;53.144;6.244;2022-10-22T12:40:19;16.00;99.90
51733;DHT22;39139;53.144;6.244;2022-10-22T12:42:53;16.00;99.90
51733;DHT22;39139;53.144;6.244;2022-10-22T12:45:19;16.30;99.90
51733;DHT22;39139;53.144;6.244;2022-10-22T12:47:46;16.40;99.90
51733;DHT22;39139;53.144;6.244;2022-10-22T12:50:22;16.40;99.90
51733;DHT22;39139;53.144;6.244;2022-10-22T12:52:49;16.50;99.90
51733;DHT22;39139;53.144;6.244;2022-10-22T12:55:21;16.50;99.90
51733;DHT22;39139;53.144;6.244;2022-10-22T12:57:50;16.60;99.90
51733;DHT22;39139;53.144;6.244;2022-10-22T13:00:24;16.60;99.90
51733;DHT22;39139;53.144;6.244;2022-10-22T13:02:51;16.70;99.90
51733;DHT22;39139;53.144;6.244;2022-10-22T13:05:30;16.70;99.90
51733;DHT22;39139;53.144;6.244;2022-10-22T13:08:04;16.80;99.90
51733;DHT22;39139;53.144;6.244;2022-10-22T13:10:34;16.70;99.90
51733;DHT22;39139;53.144;6.244;2022-10-22T13:13:01;16.80;99.90
51733;DHT22;39139;53.144;6.244;2022-10-22T13:15:34;16.80;99.90
51733;DHT22;39139;53.144;6.244;2022-10-22T13:20:28;16.90;99.90
51733;DHT22;39139;53.144;6.244;2022-10-22T13:23:21;16.80;99.90
51733;DHT22;39139;53.144;6.244;2022-10-22T13:26:12;16.80;99.90
51733;DHT22;39139;53.144;6.244;2022-10-22T13:28:38;16.90;99.90
51733;DHT22;39139;53.144;6.244;2022-10-22T13:31:13;16.70;99.90
51733;DHT22;39139;53.144;6.244;2022-10-22T13:33:41;16.70;99.90
51733;DHT22;39139;53.144;6.244;2022-10-22T13:36:14;16.70;99.90
51733;DHT22;39139;53.144;6.244;2022-10-22T13:38:41;16.70;99.90
51733;DHT22;39139;53.144;6.244;2022-10-22T13:41:19;16.70;99.90
51733;DHT22;39139;53.144;6.244;2022-10-22T13:43:45;16.70;99.90
51733;DHT22;39139;53.144;6.244;2022-10-22T13:46:10;16.60;99.90
51733;DHT22;39139;53.144;6.244;2022-10-22T13:48:36;16.60;99.90
51733;DHT22;39139;53.144;6.244;2022-10-22T13:51:03;16.60;99.90
51733;DHT22;39139;53.144;6.244;2022-10-22T13:53:29;16.60;99.90
51733;DHT22;39139;53.144;6.244;2022-10-22T13:55:55;16.60;99.90
51733;DHT22;39139;53.144;6.244;2022-10-22T13:58:22;16.50;99.90
51733;DHT22;39139;53.144;6.244;2022-10-22T14:00:58;16.50;99.90
51733;DHT22;39139;53.144;6.244;2022-10-22T14:03:35;16.50;99.90
51733;DHT22;39139;53.144;6.244;2022-10-22T14:06:02;16.50;99.90
51733;DHT22;39139;53.144;6.244;2022-10-22T14:08:27;16.40;99.90
51733;DHT22;39139;53.144;6.244;2022-10-22T14:10:54;16.40;99.90
51733;DHT22;39139;53.144;6.244;2022-10-22T14:13:20;16.40;99.90
51733;DHT22;39139;53.144;6.244;2022-10-22T14:15:48;16.50;99.90
51733;DHT22;39139;53.144;6.244;2022-10-22T14:18:19;16.40;99.90
51733;DHT22;39139;53.144;6.244;2022-10-22T14:20:52;16.40;99.90
51733;DHT22;39139;53.144;6.244;2022-10-22T14:23:20;16.40;99.90
51733;DHT22;39139;53.144;6.244;2022-10-22T14:25:46;16.40;99.90
51733;DHT22;39139;53.144;6.244;2022-10-22T14:28:13;16.40;99.90
51733;DHT22;39139;53.144;6.244;2022-10-22T14:30:39;16.40;99.90
51733;DHT22;39139;53.144;6.244;2022-10-22T14:33:29;16.40;99.90
51733;DHT22;39139;53.144;6.244;2022-10-22T14:35:55;16.30;99.90
51733;DHT22;39139;53.144;6.244;2022-10-22T14:38:21;16.30;99.90
51733;DHT22;39139;53.144;6.244;2022-10-22T14:40:47;16.20;99.90
51733;DHT22;39139;53.144;6.244;2022-10-22T14:45:43;16.20;99.90
51733;DHT22;39139;53.144;6.244;2022-10-22T14:48:09;16.10;99.90
51733;DHT22;39139;53.144;6.244;2022-10-22T14:50:34;16.10;99.90
51733;DHT22;39139;53.144;6.244;2022-10-22T14:53:00;16.00;99.90
51733;DHT22;39139;53.144;6.244;2022-10-22T14:55:26;16.10;99.90
51733;DHT22;39139;53.144;6.244;2022-10-22T14:57:52;16.10;99.90
51733;DHT22;39139;53.144;6.244;2022-10-22T15:00:19;16.00;99.90
51733;DHT22;39139;53.144;6.244;2022-10-22T15:02:45;15.90;99.90
51733;DHT22;39139;53.144;6.244;2022-10-22T15:05:12;15.90;99.90
51733;DHT22;39139;53.144;6.244;2022-10-22T15:07:38;15.90;99.90
51733;DHT22;39139;53.144;6.244;2022-10-22T15:10:05;15.90;99.90
51733;DHT22;39139;53.144;6.244;2022-10-22T15:12:31;15.70;99.90
51733;DHT22;39139;53.144;6.244;2022-10-22T15:14:57;15.70;99.90
51733;DHT22;39139;53.144;6.244;2022-10-22T15:17:22;15.60;99.90
51733;DHT22;39139;53.144;6.244;2022-10-22T15:19:48;15.50;99.90
51733;DHT22;39139;53.144;6.244;2022-10-22T15:22:14;15.40;99.90
51733;DHT22;39139;53.144;6.244;2022-10-22T15:24:40;15.40;99.90
51733;DHT22;39139;53.144;6.244;2022-10-22T15:27:12;15.30;99.90
51733;DHT22;39139;53.144;6.244;2022-10-22T15:29:39;15.20;99.90
51733;DHT22;39139;53.144;6.244;2022-10-22T15:32:05;15.10;99.90
51733;DHT22;39139;53.144;6.244;2022-10-22T15:34:33;15.10;99.90
51733;DHT22;39139;53.144;6.244;2022-10-22T15:37:02;15.00;99.90
51733;DHT22;39139;53.144;6.244;2022-10-22T15:39:28;15.00;99.90
51733;DHT22;39139;53.144;6.244;2022-10-22T15:41:54;14.90;99.90
51733;DHT22;39139;53.144;6.244;2022-10-22T15:44:22;14.90;99.90
51733;DHT22;39139;53.144;6.244;2022-10-22T15:46:48;14.90;99.90
51733;DHT22;39139;53.144;6.244;2022-10-22T15:49:15;14.70;99.90
51733;DHT22;39139;53.144;6.244;2022-10-22T15:51:41;14.70;99.90
51733;DHT22;39139;53.144;6.244;2022-10-22T15:54:12;14.70;99.90
51733;DHT22;39139;53.144;6.244;2022-10-22T15:56:38;14.50;99.90
51733;DHT22;39139;53.144;6.244;2022-10-22T15:59:04;14.50;99.90
51733;DHT22;39139;53.144;6.244;2022-10-22T16:01:32;14.40;99.90
51733;DHT22;39139;53.144;6.244;2022-10-22T16:03:59;14.40;99.90
51733;DHT22;39139;53.144;6.244;2022-10-22T16:06:35;14.50;99.90
51733;DHT22;39139;53.144;6.244;2022-10-22T16:09:03;14.30;99.90
51733;DHT22;39139;53.144;6.244;2022-10-22T16:11:30;14.20;99.90
51733;DHT22;39139;53.144;6.244;2022-10-22T16:13:57;14.10;99.90
51733;DHT22;39139;53.144;6.244;2022-10-22T16:16:24;14.00;99.90
51733;DHT22;39139;53.144;6.244;2022-10-22T16:18:51;13.90;99.90
51733;DHT22;39139;53.144;6.244;2022-10-22T16:21:17;13.80;99.90
51733;DHT22;39139;53.144;6.244;2022-10-22T16:23:43;13.70;99.90
51733;DHT22;39139;53.144;6.244;2022-10-22T16:26:09;13.60;99.90
51733;DHT22;39139;53.144;6.244;2022-10-22T16:28:35;13.50;99.90
51733;DHT22;39139;53.144;6.244;2022-10-22T16:31:06;13.60;99.90
51733;DHT22;39139;53.144;6.244;2022-10-22T16:33:34;13.50;99.90
51733;DHT22;39139;53.144;6.244;2022-10-22T16:36:00;13.40;99.90
51733;DHT22;39139;53.144;6.244;2022-10-22T16:38:27;13.30;99.90
51733;DHT22;39139;53.144;6.244;2022-10-22T16:40:53;13.20;99.90
51733;DHT22;39139;53.144;6.244;2022-10-22T16:43:19;13.30;99.90
51733;DHT22;39139;53.144;6.244;2022-10-22T16:45:50;13.20;99.90
51733;DHT22;39139;53.144;6.244;2022-10-22T16:48:17;13.10;99.90
51733;DHT22;39139;53.144;6.244;2022-10-22T16:50:43;13.10;99.90
51733;DHT22;39139;53.144;6.244;2022-10-22T16:53:10;13.10;99.90
51733;DHT22;39139;53.144;6.244;2022-10-22T16:55:36;13.00;99.90
51733;DHT22;39139;53.144;6.244;2022-10-22T16:58:03;13.10;99.90
51733;DHT22;39139;53.144;6.244;2022-10-22T17:00:29;13.00;99.90